Time;durP1;ratioP1;P1;durP2;ratioP2;P2;SDS_P1;SDS_P2;PMS_P1;PMS_P2;Temp;Humidity;BMP_temperature;BMP_pressure;BME280_temperature;BME280_humidity;BME280_pressure;Samples;Min_cycle;Max_cycle;Signal;HPM_P1;HPM_P2
2023/07/04 00:00:37;;;;;;;14.75;11.15;;;;;;;;;;2574416;23;20061;-93
2023/07/04 00:01:38;;;;;;;16.20;11.52;;;;;;;;;;2556959;23;19992;-92
2023/07/04 00:02:39;;;;;;;16.52;11.43;;;;;;;;;;2557044;23;19993;-93
2023/07/04 00:03:42;;;;;;;18.27;12.13;;;;;;;;;;2556554;23;19997;-92
2023/07/04 00:04:44;;;;;;;14.98;11.05;;;;;;;;;;2544573;23;19993;-94
2023/07/04 00:05:53;;;;;;;14.88;11.73;;;;;;;;;;2560451;23;20016;-93
2023/07/04 00:06:53;;;;;;;15.30;11.43;;;;;;;;;;2561079;23;20371;-93
2023/07/04 00:07:54;;;;;;;15.45;10.90;;;;;;;;;;2544280;23;20033;-92
2023/07/04 00:08:55;;;;;;;17.08;11.88;;;;;;;;;;2543983;23;20001;-92
2023/07/04 00:09:55;;;;;;;16.42;11.25;;;;;;;;;;2544003;23;20053;-92
2023/07/04 00:10:56;;;;;;;17.00;11.60;;;;;;;;;;2560760;23;20076;-92
2023/07/04 00:11:58;;;;;;;15.02;11.05;;;;;;;;;;2556578;23;20083;-92
2023/07/04 00:12:58;;;;;;;15.00;11.07;;;;;;;;;;2544730;23;20025;-93
2023/07/04 00:13:59;;;;;;;15.88;10.98;;;;;;;;;;2544243;23;19997;-94
2023/07/04 00:15:03;;;;;;;14.38;11.05;;;;;;;;;;2556688;23;20289;-93
2023/07/04 00:16:09;;;;;;;18.75;11.20;;;;;;;;;;2556431;23;20075;-91
2023/07/04 00:17:12;;;;;;;16.85;10.90;;;;;;;;;;2561816;23;20036;-92
2023/07/04 00:18:14;;;;;;;17.13;11.57;;;;;;;;;;2556216;23;20455;-92
2023/07/04 00:19:15;;;;;;;15.32;10.80;;;;;;;;;;2561154;23;20016;-92
2023/07/04 00:20:15;;;;;;;15.85;11.20;;;;;;;;;;2573800;23;20399;-92
2023/07/04 00:21:27;;;;;;;;;;;;;;;;;;;;;
2023/07/04 00:22:27;;;;;;;19.27;11.65;;;;;;;;;;2573940;23;19993;-93
2023/07/04 00:23:29;;;;;;;15.52;11.50;;;;;;;;;;2573867;23;19999;-92
2023/07/04 00:24:30;;;;;;;15.68;11.38;;;;;;;;;;2556065;23;20001;-92
2023/07/04 00:25:33;;;;;;;16.30;11.63;;;;;;;;;;2556499;23;20092;-93
2023/07/04 00:26:35;;;;;;;13.45;10.68;;;;;;;;;;2573094;23;20015;-93
2023/07/04 00:27:35;;;;;;;15.05;10.95;;;;;;;;;;2556394;23;20047;-93
2023/07/04 00:28:38;;;;;;;15.38;11.35;;;;;;;;;;2543604;23;20001;-92
2023/07/04 00:29:41;;;;;;;15.80;10.85;;;;;;;;;;2556732;23;19996;-93
2023/07/04 00:30:49;;;;;;;15.90;11.20;;;;;;;;;;2560872;23;19993;-92
2023/07/04 00:31:49;;;;;;;15.35;11.10;;;;;;;;;;2560516;23;20013;-92
2023/07/04 00:32:53;;;;;;;18.10;12.18;;;;;;;;;;2556457;23;20379;-92
2023/07/04 00:33:53;;;;;;;14.07;10.73;;;;;;;;;;2556560;23;19989;-93
2023/07/04 00:34:56;;;;;;;14.95;11.70;;;;;;;;;;2561217;23;19996;-92
2023/07/04 00:36:03;;;;;;;17.02;11.40;;;;;;;;;;2557321;23;20132;-92
2023/07/04 00:37:04;;;;;;;16.83;11.35;;;;;;;;;;2561661;23;20071;-91
2023/07/04 00:38:05;;;;;;;17.20;12.27;;;;;;;;;;2556581;23;20008;-92
2023/07/04 00:39:09;;;;;;;15.65;11.60;;;;;;;;;;2556550;23;20043;-92
2023/07/04 00:40:12;;;;;;;17.48;11.18;;;;;;;;;;2545429;23;20005;-93
2023/07/04 00:41:29;;;;;;;15.25;11.20;;;;;;;;;;2573219;23;20063;-92
2023/07/04 00:42:35;;;;;;;15.18;11.52;;;;;;;;;;2588486;23;19996;-92
2023/07/04 00:44:01;;;;;;;14.93;11.18;;;;;;;;;;2573569;23;20393;-92
2023/07/04 00:45:20;;;;;;;;;;;;;;;;;;;;;
2023/07/04 00:46:36;;;;;;;;;;;;;;;;;;;;;
2023/07/04 00:47:46;;;;;;;14.35;11.02;;;;;;;;;;2576076;23;20075;-94
2023/07/04 00:48:49;;;;;;;14.52;10.70;;;;;;;;;;2561913;23;20016;-93
2023/07/04 00:50:06;;;;;;;13.68;10.70;;;;;;;;;;2563245;23;20407;-92
2023/07/04 00:51:09;;;;;;;16.55;12.00;;;;;;;;;;2560596;23;20566;-91
2023/07/04 00:52:14;;;;;;;16.90;11.38;;;;;;;;;;2561303;23;20092;-91
2023/07/04 00:53:15;;;;;;;15.38;11.65;;;;;;;;;;2573946;23;20004;-92
2023/07/04 00:54:17;;;;;;;16.70;11.98;;;;;;;;;;2556388;23;20541;-92
2023/07/04 00:55:17;;;;;;;16.27;11.20;;;;;;;;;;2544530;23;20072;-92
2023/07/04 00:56:18;;;;;;;17.20;10.88;;;;;;;;;;2544250;23;20113;-91
2023/07/04 00:57:23;;;;;;;15.85;10.60;;;;;;;;;;2560036;23;20003;-91
2023/07/04 00:58:24;;;;;;;16.45;10.85;;;;;;;;;;2555719;23;20001;-92
2023/07/04 00:59:25;;;;;;;16.88;11.85;;;;;;;;;;2560122;23;19989;-92
2023/07/04 01:00:26;;;;;;;14.77;10.70;;;;;;;;;;2556358;23;20080;-91
2023/07/04 01:01:27;;;;;;;13.98;10.80;;;;;;;;;;2543614;23;20016;-91
2023/07/04 01:02:33;;;;;;;15.43;10.20;;;;;;;;;;2543841;23;20140;-91
2023/07/04 01:03:36;;;;;;;15.35;11.13;;;;;;;;;;2556401;23;20023;-92
2023/07/04 01:04:37;;;;;;;13.70;10.60;;;;;;;;;;2555747;23;20016;-92
2023/07/04 01:06:14;;;;;;;16.33;11.02;;;;;;;;;;2543495;23;19989;-92
2023/07/04 01:07:30;;;;;;;16.25;11.05;;;;;;;;;;2550888;23;20009;-92
2023/07/04 01:08:40;;;;;;;14.98;11.75;;;;;;;;;;2546336;23;20020;-91
2023/07/04 01:09:44;;;;;;;;;;;;;;;;;;2562800;23;20016;-93
2023/07/04 01:10:46;;;;;;;13.98;10.38;;;;;;;;;;2573270;23;19904;-92
2023/07/04 01:11:49;;;;;;;15.05;10.98;;;;;;;;;;2555603;23;20088;-92
2023/07/04 01:12:49;;;;;;;15.65;10.75;;;;;;;;;;2556407;23;20038;-92
2023/07/04 01:13:52;;;;;;;16.13;11.13;;;;;;;;;;2572483;23;20050;-91
2023/07/04 01:14:53;;;;;;;16.25;11.57;;;;;;;;;;2573417;23;20406;-91
2023/07/04 01:15:54;;;;;;;15.88;11.90;;;;;;;;;;2555802;23;20016;-92
2023/07/04 01:16:57;;;;;;;14.55;10.85;;;;;;;;;;2556087;23;20426;-92
2023/07/04 01:17:59;;;;;;;16.05;11.57;;;;;;;;;;2568273;23;20493;-92
2023/07/04 01:18:59;;;;;;;17.08;10.88;;;;;;;;;;2555915;23;20372;-91
2023/07/04 01:20:02;;;;;;;16.67;11.23;;;;;;;;;;2543588;23;20081;-92
2023/07/04 01:21:05;;;;;;;17.92;12.38;;;;;;;;;;2544190;23;20027;-92
2023/07/04 01:22:11;;;;;;;15.60;11.63;;;;;;;;;;2560357;23;20069;-93
2023/07/04 01:23:29;;;;;;;16.70;11.40;;;;;;;;;;2556083;23;20001;-92
2023/07/04 01:24:40;;;;;;;15.80;11.38;;;;;;;;;;2546690;23;20080;-92
2023/07/04 01:25:54;;;;;;;16.35;11.13;;;;;;;;;;2545744;23;20016;-91
2023/07/04 01:26:54;;;;;;;15.38;11.55;;;;;;;;;;2562914;23;20317;-92
2023/07/04 01:28:04;;;;;;;17.13;12.23;;;;;;;;;;2573264;23;20050;-92
2023/07/04 01:29:10;;;;;;;14.50;10.80;;;;;;;;;;2558079;23;20035;-93
2023/07/04 01:30:12;;;;;;;17.73;11.57;;;;;;;;;;2549845;23;20040;-91
2023/07/04 01:31:12;;;;;;;15.30;10.77;;;;;;;;;;2544101;23;20410;-92
2023/07/04 01:32:13;;;;;;;15.35;11.63;;;;;;;;;;2560300;23;20016;-92
2023/07/04 01:33:14;;;;;;;17.05;10.75;;;;;;;;;;2555905;23;20374;-92
2023/07/04 01:34:20;;;;;;;20.85;12.23;;;;;;;;;;2543604;23;20432;-92
2023/07/04 01:35:22;;;;;;;16.27;11.75;;;;;;;;;;2545559;23;20002;-92
2023/07/04 01:36:27;;;;;;;15.07;10.95;;;;;;;;;;2543793;23;20001;-92
2023/07/04 01:37:31;;;;;;;18.98;11.93;;;;;;;;;;2544234;23;20005;-92
2023/07/04 01:38:31;;;;;;;16.88;11.65;;;;;;;;;;2556538;23;20446;-93
2023/07/04 01:39:31;;;;;;;17.30;11.85;;;;;;;;;;2572593;23;20059;-92
2023/07/04 01:40:34;;;;;;;19.27;12.35;;;;;;;;;;2555773;23;20413;-92
2023/07/04 01:41:35;;;;;;;14.15;10.35;;;;;;;;;;2560441;23;19997;-92
2023/07/04 01:42:36;;;;;;;14.98;11.20;;;;;;;;;;2555968;23;20434;-91
2023/07/04 01:43:36;;;;;;;17.02;12.10;;;;;;;;;;2543342;23;20025;-91
2023/07/04 01:44:39;;;;;;;16.30;11.38;;;;;;;;;;2559873;23;19997;-91
2023/07/04 01:45:39;;;;;;;16.05;11.60;;;;;;;;;;2568232;23;20138;-91
2023/07/04 01:46:40;;;;;;;17.30;11.52;;;;;;;;;;2555807;23;20371;-91
2023/07/04 01:47:41;;;;;;;16.50;11.70;;;;;;;;;;2555654;23;20012;-92
2023/07/04 01:48:41;;;;;;;16.20;12.05;;;;;;;;;;2555141;23;20041;-92
2023/07/04 01:49:42;;;;;;;16.45;11.68;;;;;;;;;;2572651;23;20073;-92
2023/07/04 01:50:43;;;;;;;18.70;11.88;;;;;;;;;;2555453;23;19993;-90
2023/07/04 01:51:44;;;;;;;19.00;11.95;;;;;;;;;;2543533;23;20072;-94
2023/07/04 01:52:44;;;;;;;18.63;12.45;;;;;;;;;;2560468;23;19993;-91
2023/07/04 01:53:45;;;;;;;15.60;11.82;;;;;;;;;;2568277;23;20292;-93
2023/07/04 01:54:45;;;;;;;16.88;12.63;;;;;;;;;;2572558;23;19993;-94
2023/07/04 01:55:51;;;;;;;15.70;11.65;;;;;;;;;;2568559;23;19996;-93
2023/07/04 01:56:52;;;;;;;17.37;11.33;;;;;;;;;;2121969;23;10231530;-91
2023/07/04 01:57:52;;;;;;;14.35;10.65;;;;;;;;;;2543157;23;19989;-90
2023/07/04 01:58:53;;;;;;;14.98;11.63;;;;;;;;;;2543376;23;20089;-90
2023/07/04 01:59:56;;;;;;;22.65;11.88;;;;;;;;;;2555751;23;19993;-91
2023/07/04 02:00:57;;;;;;;14.88;11.40;;;;;;;;;;2568081;23;20003;-91
2023/07/04 02:01:57;;;;;;;14.07;11.10;;;;;;;;;;2555673;23;20055;-92
2023/07/04 02:02:58;;;;;;;15.90;11.43;;;;;;;;;;2568452;23;20061;-91
2023/07/04 02:03:59;;;;;;;16.63;11.05;;;;;;;;;;2584968;23;20000;-91
2023/07/04 02:04:59;;;;;;;18.52;12.52;;;;;;;;;;2568091;23;20430;-92
2023/07/04 02:06:00;;;;;;;19.38;12.10;;;;;;;;;;2555904;23;20074;-92
2023/07/04 02:07:01;;;;;;;15.95;11.75;;;;;;;;;;2555885;23;19997;-92
2023/07/04 02:08:04;;;;;;;20.48;11.43;;;;;;;;;;2555594;23;20529;-92
2023/07/04 02:09:04;;;;;;;15.98;11.60;;;;;;;;;;2556083;23;20008;-92
2023/07/04 02:10:06;;;;;;;17.20;11.23;;;;;;;;;;2572413;23;20002;-93
2023/07/04 02:11:09;;;;;;;16.42;11.32;;;;;;;;;;2572913;23;20001;-93
2023/07/04 02:12:09;;;;;;;14.77;11.20;;;;;;;;;;2555349;23;20055;-91
2023/07/04 02:13:12;;;;;;;16.83;12.00;;;;;;;;;;2543229;23;20348;-92
2023/07/04 02:14:15;;;;;;;15.48;10.85;;;;;;;;;;2543486;23;20119;-92
2023/07/04 02:15:16;;;;;;;17.65;11.45;;;;;;;;;;2543858;23;20000;-93
2023/07/04 02:16:16;;;;;;;15.18;11.70;;;;;;;;;;2559907;23;20455;-90
2023/07/04 02:17:17;;;;;;;14.77;11.13;;;;;;;;;;2557923;23;19996;-91
2023/07/04 02:18:17;;;;;;;18.80;12.05;;;;;;;;;;2546576;23;20085;-93
2023/07/04 02:19:18;;;;;;;17.42;11.75;;;;;;;;;;2555914;23;20429;-92
2023/07/04 02:20:20;;;;;;;16.20;11.38;;;;;;;;;;2555814;23;19997;-92
2023/07/04 02:21:26;;;;;;;19.40;11.55;;;;;;;;;;2543209;23;20455;-92
2023/07/04 02:22:27;;;;;;;14.40;11.13;;;;;;;;;;2544470;23;19997;-92
2023/07/04 02:23:27;;;;;;;15.40;11.20;;;;;;;;;;2543362;23;20025;-92
2023/07/04 02:24:28;;;;;;;16.88;11.10;;;;;;;;;;2559913;23;20414;-92
2023/07/04 02:25:28;;;;;;;16.33;11.50;;;;;;;;;;2568173;23;19997;-91
2023/07/04 02:26:32;;;;;;;16.75;11.93;;;;;;;;;;2554981;23;20001;-92
2023/07/04 02:27:32;;;;;;;14.77;10.80;;;;;;;;;;2555734;23;20514;-92
2023/07/04 02:28:35;;;;;;;14.82;10.95;;;;;;;;;;2555326;23;20078;-92
2023/07/04 02:29:38;;;;;;;15.57;11.93;;;;;;;;;;2555756;23;20024;-92
2023/07/04 02:30:38;;;;;;;17.42;11.98;;;;;;;;;;2572050;23;19992;-90
2023/07/04 02:31:39;;;;;;;16.50;11.70;;;;;;;;;;2568022;23;20039;-93
2023/07/04 02:32:44;;;;;;;18.15;12.05;;;;;;;;;;2568037;23;20426;-91
2023/07/04 02:33:44;;;;;;;16.67;11.95;;;;;;;;;;2567487;23;19988;-92
2023/07/04 02:34:47;;;;;;;16.45;11.70;;;;;;;;;;2555193;23;20020;-92
2023/07/04 02:35:50;;;;;;;16.88;11.52;;;;;;;;;;2555881;23;20016;-92
2023/07/04 02:36:50;;;;;;;18.05;13.30;;;;;;;;;;2572135;23;20435;-92
2023/07/04 02:37:51;;;;;;;16.88;11.30;;;;;;;;;;2567871;23;20063;-92
2023/07/04 02:38:51;;;;;;;16.20;11.50;;;;;;;;;;2555098;23;19992;-91
2023/07/04 02:39:54;;;;;;;14.88;11.90;;;;;;;;;;2571843;23;19989;-92
2023/07/04 02:40:54;;;;;;;17.38;11.63;;;;;;;;;;2585270;23;20007;-91
2023/07/04 02:41:55;;;;;;;15.38;11.30;;;;;;;;;;2567715;23;19997;-91
2023/07/04 02:42:58;;;;;;;16.05;11.60;;;;;;;;;;2567772;23;20083;-92
2023/07/04 02:43:59;;;;;;;16.15;11.15;;;;;;;;;;2568022;23;19993;-92
2023/07/04 02:45:00;;;;;;;17.55;11.23;;;;;;;;;;2567585;23;20003;-91
2023/07/04 02:46:00;;;;;;;15.95;11.63;;;;;;;;;;2555066;23;20170;-91
2023/07/04 02:47:01;;;;;;;16.40;11.63;;;;;;;;;;2572012;23;19996;-91
2023/07/04 02:48:01;;;;;;;14.10;11.05;;;;;;;;;;2567486;23;20016;-91
2023/07/04 02:49:04;;;;;;;15.93;11.88;;;;;;;;;;2572134;23;20011;-92
2023/07/04 02:50:05;;;;;;;15.73;11.43;;;;;;;;;;2585586;23;20338;-91
2023/07/04 02:51:08;;;;;;;15.18;11.35;;;;;;;;;;2567716;23;20019;-93
2023/07/04 02:52:08;;;;;;;17.58;11.90;;;;;;;;;;2568263;23;19996;-91
2023/07/04 02:53:09;;;;;;;17.88;12.43;;;;;;;;;;2581022;23;20014;-90
2023/07/04 02:54:09;;;;;;;19.67;12.00;;;;;;;;;;2579883;23;20073;-91
2023/07/04 02:55:10;;;;;;;17.50;11.47;;;;;;;;;;2127246;23;10286228;-91
2023/07/04 02:56:11;;;;;;;16.98;12.05;;;;;;;;;;2568234;23;20000;-91
2023/07/04 02:57:15;;;;;;;17.30;12.30;;;;;;;;;;2580546;23;20462;-91
2023/07/04 02:58:15;;;;;;;19.95;12.25;;;;;;;;;;2567450;23;20054;-91
2023/07/04 02:59:16;;;;;;;15.90;11.48;;;;;;;;;;2567789;23;20320;-92
2023/07/04 03:00:16;;;;;;;17.40;12.02;;;;;;;;;;2584744;23;20007;-91
2023/07/04 03:01:17;;;;;;;17.27;11.68;;;;;;;;;;2585660;23;20050;-91
2023/07/04 03:02:18;;;;;;;16.42;11.27;;;;;;;;;;2593091;22;19991;-92
2023/07/04 03:03:19;;;;;;;17.00;11.60;;;;;;;;;;2580281;23;20007;-91
2023/07/04 03:04:20;;;;;;;25.15;12.55;;;;;;;;;;2572631;23;20072;-91
2023/07/04 03:05:21;;;;;;;15.63;11.80;;;;;;;;;;2570285;23;20012;-89
2023/07/04 03:06:28;;;;;;;16.60;11.90;;;;;;;;;;2578656;23;19993;-91
2023/07/04 03:07:28;;;;;;;15.75;11.48;;;;;;;;;;2585688;23;20067;-92
2023/07/04 03:08:29;;;;;;;19.42;11.82;;;;;;;;;;2567701;23;20296;-92
2023/07/04 03:09:29;;;;;;;17.23;12.20;;;;;;;;;;2555378;23;20001;-91
2023/07/04 03:10:30;;;;;;;17.45;11.88;;;;;;;;;;2555055;23;20470;-92
2023/07/04 03:11:31;;;;;;;16.95;12.45;;;;;;;;;;2554749;23;20004;-91
2023/07/04 03:12:31;;;;;;;18.38;11.55;;;;;;;;;;2567628;23;20004;-91
2023/07/04 03:13:34;;;;;;;16.02;11.88;;;;;;;;;;2567793;23;20616;-92
2023/07/04 03:14:37;;;;;;;16.90;12.15;;;;;;;;;;2568147;23;20039;-91
2023/07/04 03:15:38;;;;;;;18.30;12.30;;;;;;;;;;2568043;23;19989;-92
2023/07/04 03:16:40;;;;;;;19.08;12.80;;;;;;;;;;2567999;23;19993;-91
2023/07/04 03:17:41;;;;;;;15.30;11.90;;;;;;;;;;2567652;23;20115;-91
2023/07/04 03:18:41;;;;;;;14.52;11.90;;;;;;;;;;2567878;23;20378;-91
2023/07/04 03:19:42;;;;;;;16.27;12.98;;;;;;;;;;2580268;23;20153;-91
2023/07/04 03:20:45;;;;;;;17.00;11.50;;;;;;;;;;2584340;23;20407;-91
2023/07/04 03:21:45;;;;;;;18.48;12.57;;;;;;;;;;2567663;23;20411;-90
2023/07/04 03:22:46;;;;;;;17.27;13.35;;;;;;;;;;2567289;23;19996;-90
2023/07/04 03:23:49;;;;;;;18.90;12.63;;;;;;;;;;2580003;23;19992;-91
2023/07/04 03:24:49;;;;;;;20.40;13.25;;;;;;;;;;2584231;23;19992;-92
2023/07/04 03:25:53;;;;;;;18.65;12.68;;;;;;;;;;2584287;23;19996;-92
2023/07/04 03:26:53;;;;;;;16.85;12.70;;;;;;;;;;2571860;23;20415;-92
2023/07/04 03:27:54;;;;;;;21.85;13.13;;;;;;;;;;2568040;23;20035;-92
2023/07/04 03:28:57;;;;;;;18.52;13.18;;;;;;;;;;2571881;23;20003;-91
2023/07/04 03:29:57;;;;;;;18.15;12.57;;;;;;;;;;2584948;23;20000;-91
2023/07/04 03:30:58;;;;;;;22.35;13.55;;;;;;;;;;2567356;23;20380;-91
2023/07/04 03:31:58;;;;;;;16.05;11.70;;;;;;;;;;2567353;23;20007;-92
2023/07/04 03:32:59;;;;;;;15.98;12.57;;;;;;;;;;2567272;23;20043;-91
2023/07/04 03:34:02;;;;;;;16.92;12.15;;;;;;;;;;2571468;23;20064;-91
2023/07/04 03:35:03;;;;;;;18.65;13.00;;;;;;;;;;2585240;23;20052;-92
2023/07/04 03:36:05;;;;;;;19.30;13.90;;;;;;;;;;2584902;23;20019;-91
2023/07/04 03:37:05;;;;;;;16.77;12.05;;;;;;;;;;2567370;23;20028;-91
2023/07/04 03:38:06;;;;;;;17.70;12.82;;;;;;;;;;2571277;23;20283;-91
2023/07/04 03:39:06;;;;;;;17.88;12.18;;;;;;;;;;2585113;23;19996;-92
2023/07/04 03:40:09;;;;;;;16.52;12.10;;;;;;;;;;2567097;23;20072;-91
2023/07/04 03:41:10;;;;;;;16.77;12.05;;;;;;;;;;2571773;23;20128;-91
2023/07/04 03:42:10;;;;;;;18.42;12.07;;;;;;;;;;2566890;23;20015;-91
2023/07/04 03:43:11;;;;;;;18.25;11.93;;;;;;;;;;2571367;23;20134;-91
2023/07/04 03:44:11;;;;;;;15.52;11.48;;;;;;;;;;2579343;23;20000;-90
2023/07/04 03:45:12;;;;;;;14.15;11.27;;;;;;;;;;2584004;23;19996;-93
2023/07/04 03:46:12;;;;;;;16.77;11.65;;;;;;;;;;2567015;23;20433;-93
2023/07/04 03:47:13;;;;;;;15.57;11.57;;;;;;;;;;2571805;23;20038;-92
2023/07/04 03:48:14;;;;;;;18.58;12.85;;;;;;;;;;2585261;23;19992;-92
2023/07/04 03:49:14;;;;;;;18.23;11.32;;;;;;;;;;2584817;23;20033;-91
2023/07/04 03:50:15;;;;;;;15.57;11.73;;;;;;;;;;2585079;23;20307;-92
2023/07/04 03:51:18;;;;;;;16.67;11.55;;;;;;;;;;2580011;23;20548;-92
2023/07/04 03:52:18;;;;;;;14.57;11.60;;;;;;;;;;2584452;23;20040;-92
2023/07/04 03:53:19;;;;;;;18.00;11.35;;;;;;;;;;2581379;23;19996;-87
2023/07/04 03:54:21;;;;;;;16.10;11.93;;;;;;;;;;2572540;23;20088;-91
2023/07/04 03:55:22;;;;;;;15.93;11.10;;;;;;;;;;2572006;23;20000;-92
2023/07/04 03:56:22;;;;;;;16.85;11.85;;;;;;;;;;2584969;23;20008;-92
2023/07/04 03:57:23;;;;;;;15.85;11.50;;;;;;;;;;2584894;23;19999;-91
2023/07/04 03:58:23;;;;;;;18.10;11.80;;;;;;;;;;2567280;23;20458;-91
2023/07/04 03:59:24;;;;;;;16.38;11.55;;;;;;;;;;2571726;23;20043;-91
2023/07/04 04:00:25;;;;;;;17.15;12.68;;;;;;;;;;2585090;23;20379;-92
2023/07/04 04:01:25;;;;;;;19.40;11.60;;;;;;;;;;2584917;23;20295;-92
2023/07/04 04:02:26;;;;;;;17.92;12.60;;;;;;;;;;2585126;23;20477;-92
2023/07/04 04:03:26;;;;;;;16.25;11.93;;;;;;;;;;2585389;23;20389;-91
2023/07/04 04:04:27;;;;;;;15.07;11.60;;;;;;;;;;2585496;23;19999;-91
2023/07/04 04:05:29;;;;;;;17.95;12.68;;;;;;;;;;2585431;23;20110;-91
2023/07/04 04:06:29;;;;;;;16.98;12.48;;;;;;;;;;2568141;23;20000;-91
2023/07/04 04:07:29;;;;;;;17.17;12.30;;;;;;;;;;2572051;23;20011;-91
2023/07/04 04:08:30;;;;;;;17.73;12.30;;;;;;;;;;2585162;23;20027;-91
2023/07/04 04:09:30;;;;;;;16.73;11.68;;;;;;;;;;2568293;23;20062;-92
2023/07/04 04:10:31;;;;;;;15.90;12.05;;;;;;;;;;2555751;23;20435;-91
2023/07/04 04:11:32;;;;;;;17.92;11.77;;;;;;;;;;2572252;23;20059;-92
2023/07/04 04:12:32;;;;;;;18.25;12.60;;;;;;;;;;2568245;23;20004;-90
2023/07/04 04:13:35;;;;;;;17.80;13.50;;;;;;;;;;2572981;23;20094;-92
2023/07/04 04:14:36;;;;;;;16.88;12.55;;;;;;;;;;2581489;23;20083;-92
2023/07/04 04:15:40;;;;;;;17.90;12.77;;;;;;;;;;2581757;23;20337;-92
2023/07/04 04:16:40;;;;;;;20.60;13.27;;;;;;;;;;2586386;23;19988;-92
2023/07/04 04:17:41;;;;;;;16.05;12.73;;;;;;;;;;2569208;23;20111;-92
2023/07/04 04:18:41;;;;;;;16.13;12.43;;;;;;;;;;2568824;23;19988;-93
2023/07/04 04:19:42;;;;;;;15.43;12.57;;;;;;;;;;2569133;23;19993;-91
2023/07/04 04:20:45;;;;;;;17.40;12.90;;;;;;;;;;2568732;23;19996;-92
2023/07/04 04:21:45;;;;;;;17.52;12.18;;;;;;;;;;2556945;23;20049;-93
2023/07/04 04:22:49;;;;;;;18.45;12.15;;;;;;;;;;2569185;23;20009;-92
2023/07/04 04:23:52;;;;;;;17.25;12.82;;;;;;;;;;2594210;22;20004;-92
2023/07/04 04:24:53;;;;;;;16.90;12.38;;;;;;;;;;2581020;23;20016;-92
2023/07/04 04:25:53;;;;;;;19.17;13.25;;;;;;;;;;2569053;23;20023;-93
2023/07/04 04:27:00;;;;;;;17.23;12.70;;;;;;;;;;2585518;23;20130;-93
2023/07/04 04:28:01;;;;;;;14.88;11.27;;;;;;;;;;2586148;23;20261;-92
2023/07/04 04:29:04;;;;;;;19.00;13.07;;;;;;;;;;2567806;23;20092;-91
2023/07/04 04:30:08;;;;;;;18.67;11.75;;;;;;;;;;2573456;23;20004;-92
2023/07/04 04:31:11;;;;;;;18.10;12.60;;;;;;;;;;2568863;23;20111;-91
2023/07/04 04:32:11;;;;;;;19.20;11.48;;;;;;;;;;2569639;23;19997;-92
2023/07/04 04:33:12;;;;;;;16.00;12.63;;;;;;;;;;2568713;23;20488;-91
2023/07/04 04:34:13;;;;;;;16.30;11.65;;;;;;;;;;2571477;23;20000;-90
2023/07/04 04:35:14;;;;;;;15.65;11.75;;;;;;;;;;2584502;23;20016;-91
2023/07/04 04:36:17;;;;;;;17.60;12.10;;;;;;;;;;2584764;23;20315;-92
2023/07/04 04:37:18;;;;;;;15.45;11.40;;;;;;;;;;2568391;23;20044;-91
2023/07/04 04:38:20;;;;;;;14.57;11.48;;;;;;;;;;2567717;23;20051;-91
2023/07/04 04:39:21;;;;;;;17.88;12.50;;;;;;;;;;2555894;23;20407;-90
2023/07/04 04:40:24;;;;;;;15.38;11.05;;;;;;;;;;2572225;23;20072;-91
2023/07/04 04:41:26;;;;;;;14.35;11.00;;;;;;;;;;2570745;23;20546;-89
2023/07/04 04:42:27;;;;;;;18.02;12.13;;;;;;;;;;2573045;23;20171;-91
2023/07/04 04:43:28;;;;;;;16.60;10.95;;;;;;;;;;2584759;23;20054;-91
2023/07/04 04:44:28;;;;;;;15.40;10.65;;;;;;;;;;2568174;23;20001;-92
2023/07/04 04:45:29;;;;;;;14.52;9.95;;;;;;;;;;2567441;23;20445;-91
2023/07/04 04:46:29;;;;;;;16.13;10.02;;;;;;;;;;2572113;23;20449;-92
2023/07/04 04:47:33;;;;;;;12.90;8.88;;;;;;;;;;2568198;23;20019;-92
2023/07/04 04:48:36;;;;;;;13.23;9.57;;;;;;;;;;2569171;23;20491;-92
2023/07/04 04:49:40;;;;;;;13.23;9.75;;;;;;;;;;2287299;23;10270243;-92
2023/07/04 04:50:43;;;;;;;10.73;9.52;;;;;;;;;;2585772;23;20260;-92
2023/07/04 04:51:44;;;;;;;14.77;9.80;;;;;;;;;;2585370;23;20078;-91
2023/07/04 04:52:45;;;;;;;16.90;11.10;;;;;;;;;;2567954;23;20047;-92
2023/07/04 04:53:46;;;;;;;13.65;9.57;;;;;;;;;;2567945;23;20001;-92
2023/07/04 04:54:48;;;;;;;14.93;10.40;;;;;;;;;;2585359;23;20054;-92
2023/07/04 04:55:48;;;;;;;11.52;9.48;;;;;;;;;;2568105;23;19996;-92
2023/07/04 04:56:49;;;;;;;18.25;9.40;;;;;;;;;;2568363;23;20505;-93
2023/07/04 04:57:50;;;;;;;12.13;9.85;;;;;;;;;;2568220;23;19997;-93
2023/07/04 04:58:50;;;;;;;12.13;9.85;;;;;;;;;;2572309;23;20303;-92
2023/07/04 04:59:51;;;;;;;14.38;10.05;;;;;;;;;;2585782;23;20386;-92
2023/07/04 05:00:51;;;;;;;13.88;9.15;;;;;;;;;;2585644;23;19996;-92
2023/07/04 05:01:52;;;;;;;13.63;10.25;;;;;;;;;;2580334;23;20015;-93
2023/07/04 05:02:56;;;;;;;12.57;9.63;;;;;;;;;;2568249;23;19989;-93
2023/07/04 05:03:56;;;;;;;13.10;10.07;;;;;;;;;;2556212;23;20028;-94
2023/07/04 05:04:59;;;;;;;13.82;10.45;;;;;;;;;;2556036;23;20012;-92
2023/07/04 05:06:01;;;;;;;11.98;9.65;;;;;;;;;;2555725;23;20406;-92
2023/07/04 05:07:04;;;;;;;11.70;9.38;;;;;;;;;;2568510;23;20010;-93
2023/07/04 05:08:04;;;;;;;16.48;10.55;;;;;;;;;;2568822;23;19999;-93
2023/07/04 05:09:05;;;;;;;12.38;9.93;;;;;;;;;;2568548;23;20028;-92
2023/07/04 05:10:05;;;;;;;10.50;9.45;;;;;;;;;;2585086;23;20024;-93
2023/07/04 05:11:07;;;;;;;12.43;10.27;;;;;;;;;;2581041;23;19999;-93
2023/07/04 05:12:08;;;;;;;11.30;10.10;;;;;;;;;;2568510;23;19997;-94
2023/07/04 05:13:08;;;;;;;17.50;11.05;;;;;;;;;;2572624;23;20079;-93
2023/07/04 05:14:09;;;;;;;15.07;10.73;;;;;;;;;;2583517;23;20457;-93
2023/07/04 05:15:12;;;;;;;15.25;10.88;;;;;;;;;;2586075;23;20467;-94
2023/07/04 05:16:15;;;;;;;11.30;9.27;;;;;;;;;;2586050;23;20003;-92
2023/07/04 05:17:16;;;;;;;16.88;11.32;;;;;;;;;;2586467;23;19999;-92
2023/07/04 05:18:17;;;;;;;12.98;10.02;;;;;;;;;;2580981;23;20000;-91
2023/07/04 05:19:17;;;;;;;14.35;10.82;;;;;;;;;;2568573;23;20099;-92
2023/07/04 05:20:23;;;;;;;13.35;10.43;;;;;;;;;;2568072;23;20442;-92
2023/07/04 05:21:24;;;;;;;14.18;10.50;;;;;;;;;;2585186;23;20000;-91
2023/07/04 05:22:24;;;;;;;13.55;10.45;;;;;;;;;;2585711;23;20063;-91
2023/07/04 05:23:42;;;;;;;13.35;11.18;;;;;;;;;;2568431;23;19996;-92
2023/07/04 05:24:43;;;;;;;12.43;10.70;;;;;;;;;;2576820;23;20018;-93
2023/07/04 05:25:44;;;;;;;14.93;11.57;;;;;;;;;;2568142;23;20024;-90
2023/07/04 05:26:45;;;;;;;13.77;11.45;;;;;;;;;;2572629;23;20459;-91
2023/07/04 05:27:45;;;;;;;12.35;10.73;;;;;;;;;;2585974;23;19992;-91
2023/07/04 05:28:46;;;;;;;11.98;10.85;;;;;;;;;;2580486;23;20007;-91
2023/07/04 05:29:48;;;;;;;15.32;11.40;;;;;;;;;;2569898;23;20020;-89
2023/07/04 05:30:57;;;;;;;14.82;11.88;;;;;;;;;;2572439;23;20199;-91
2023/07/04 05:31:57;;;;;;;14.38;11.98;;;;;;;;;;2586053;23;20003;-92
2023/07/04 05:32:57;;;;;;;15.07;11.57;;;;;;;;;;2568159;23;20004;-92
2023/07/04 05:33:58;;;;;;;13.25;11.32;;;;;;;;;;2567961;23;19997;-92
2023/07/04 05:35:00;;;;;;;12.13;10.80;;;;;;;;;;2585326;23;19996;-89
2023/07/04 05:36:37;;;;;;;12.93;11.35;;;;;;;;;;2580507;23;20402;-92
2023/07/04 05:40:14;;;;;;;12.10;8.95;;;;;;;;;;2583894;23;20260;-91
2023/07/04 05:45:47;;;;;;;12.38;9.57;;;;;;;;;;2542820;23;20022;-92
2023/07/04 05:47:14;;;;;;;10.15;9.10;;;;;;;;;;2547113;23;20018;-93
2023/07/04 05:52:33;;;;;;;10.50;9.13;;;;;;;;;;2529078;23;19998;-92
2023/07/04 05:53:36;;;;;;;9.70;8.55;;;;;;;;;;2530721;23;20639;-95
2023/07/04 05:54:36;;;;;;;10.65;9.35;;;;;;;;;;2566337;23;20030;-91
2023/07/04 05:55:37;;;;;;;15.93;9.93;;;;;;;;;;2567206;23;19996;-92
2023/07/04 05:56:37;;;;;;;13.50;9.82;;;;;;;;;;2555634;23;19997;-92
2023/07/04 05:57:38;;;;;;;10.30;9.20;;;;;;;;;;2572807;23;20027;-92
2023/07/04 05:58:41;;;;;;;11.02;8.73;;;;;;;;;;2585375;23;19992;-94
2023/07/04 05:59:41;;;;;;;10.65;9.43;;;;;;;;;;2568146;23;19988;-92
2023/07/04 06:00:42;;;;;;;11.40;9.20;;;;;;;;;;2567725;23;20072;-92
2023/07/04 06:01:45;;;;;;;10.45;9.35;;;;;;;;;;2584453;23;20000;-93
2023/07/04 06:02:48;;;;;;;10.85;9.75;;;;;;;;;;2585447;23;19992;-91
2023/07/04 06:03:49;;;;;;;11.68;9.73;;;;;;;;;;2585449;23;20056;-93
2023/07/04 06:04:50;;;;;;;11.35;9.82;;;;;;;;;;2567829;23;19993;-92
2023/07/04 06:05:50;;;;;;;11.88;9.23;;;;;;;;;;2569037;23;20063;-92
2023/07/04 06:07:04;;;;;;;11.35;9.45;;;;;;;;;;2585010;23;20062;-93
2023/07/04 06:08:04;;;;;;;9.90;8.90;;;;;;;;;;2586831;23;19996;-93
2023/07/04 06:09:12;;;;;;;10.38;9.30;;;;;;;;;;2586267;23;20000;-93
2023/07/04 06:10:13;;;;;;;10.98;9.88;;;;;;;;;;2569609;23;19993;-93
2023/07/04 06:11:14;;;;;;;11.40;10.18;;;;;;;;;;2573027;23;19993;-92
2023/07/04 06:12:15;;;;;;;10.35;9.20;;;;;;;;;;2568473;23;20004;-93
2023/07/04 06:13:15;;;;;;;13.80;10.70;;;;;;;;;;2556010;23;19996;-92
2023/07/04 06:14:26;;;;;;;10.15;8.52;;;;;;;;;;2572166;23;20390;-92
2023/07/04 06:15:28;;;;;;;10.48;8.95;;;;;;;;;;2567993;23;20007;-93
2023/07/04 06:16:29;;;;;;;11.10;9.48;;;;;;;;;;2555808;23;20004;-93